sensor_id;sensor_type;location;lat;lon;timestamp;temperature;humidity
45229;DHT22;30967;51.728;8.682;2022-11-02T00:00:39;14.90;99.50
45229;DHT22;30967;51.728;8.682;2022-11-02T00:03:05;14.90;99.50
45229;DHT22;30967;51.728;8.682;2022-11-02T00:05:31;14.90;99.50
45229;DHT22;30967;51.728;8.682;2022-11-02T00:08:01;14.90;99.60
45229;DHT22;30967;51.728;8.682;2022-11-02T00:10:27;14.80;99.80
45229;DHT22;30967;51.728;8.682;2022-11-02T00:12:54;14.80;99.80
45229;DHT22;30967;51.728;8.682;2022-11-02T00:15:21;14.80;99.90
45229;DHT22;30967;51.728;8.682;2022-11-02T00:17:50;14.80;99.80
45229;DHT22;30967;51.728;8.682;2022-11-02T00:20:19;14.80;99.80
45229;DHT22;30967;51.728;8.682;2022-11-02T00:22:47;14.90;99.70
45229;DHT22;30967;51.728;8.682;2022-11-02T00:25:17;14.80;99.70
45229;DHT22;30967;51.728;8.682;2022-11-02T00:27:45;14.90;99.70
45229;DHT22;30967;51.728;8.682;2022-11-02T00:30:11;14.90;99.70
45229;DHT22;30967;51.728;8.682;2022-11-02T00:32:37;14.80;99.70
45229;DHT22;30967;51.728;8.682;2022-11-02T00:35:02;14.90;99.70
45229;DHT22;30967;51.728;8.682;2022-11-02T00:37:28;14.80;99.80
45229;DHT22;30967;51.728;8.682;2022-11-02T00:39:54;14.90;99.90
45229;DHT22;30967;51.728;8.682;2022-11-02T00:42:19;14.90;99.90
45229;DHT22;30967;51.728;8.682;2022-11-02T00:44:45;14.90;99.90
45229;DHT22;30967;51.728;8.682;2022-11-02T00:47:10;14.80;99.90
45229;DHT22;30967;51.728;8.682;2022-11-02T00:49:36;14.80;99.90
45229;DHT22;30967;51.728;8.682;2022-11-02T00:52:03;14.80;99.90
45229;DHT22;30967;51.728;8.682;2022-11-02T00:54:31;14.80;99.90
45229;DHT22;30967;51.728;8.682;2022-11-02T00:56:56;14.80;99.90
45229;DHT22;30967;51.728;8.682;2022-11-02T00:59:22;14.80;99.90
45229;DHT22;30967;51.728;8.682;2022-11-02T01:01:55;14.70;99.90
45229;DHT22;30967;51.728;8.682;2022-11-02T01:04:20;14.80;99.90
45229;DHT22;30967;51.728;8.682;2022-11-02T01:06:50;14.80;99.90
45229;DHT22;30967;51.728;8.682;2022-11-02T01:09:16;14.80;99.90
45229;DHT22;30967;51.728;8.682;2022-11-02T01:11:42;14.80;99.90
45229;DHT22;30967;51.728;8.682;2022-11-02T01:14:09;14.80;99.90
45229;DHT22;30967;51.728;8.682;2022-11-02T01:16:34;14.80;99.90
45229;DHT22;30967;51.728;8.682;2022-11-02T01:19:00;14.80;99.90
45229;DHT22;30967;51.728;8.682;2022-11-02T01:21:26;14.80;99.90
45229;DHT22;30967;51.728;8.682;2022-11-02T01:23:52;14.80;99.90
45229;DHT22;30967;51.728;8.682;2022-11-02T01:26:18;14.90;99.90
45229;DHT22;30967;51.728;8.682;2022-11-02T01:28:43;14.80;99.90
45229;DHT22;30967;51.728;8.682;2022-11-02T01:31:10;14.90;99.90
45229;DHT22;30967;51.728;8.682;2022-11-02T01:33:36;14.80;99.90
45229;DHT22;30967;51.728;8.682;2022-11-02T01:36:05;14.90;99.90
45229;DHT22;30967;51.728;8.682;2022-11-02T01:38:31;14.80;99.90
45229;DHT22;30967;51.728;8.682;2022-11-02T01:40:57;14.80;99.90
45229;DHT22;30967;51.728;8.682;2022-11-02T01:43:26;14.80;99.90
45229;DHT22;30967;51.728;8.682;2022-11-02T01:46:04;14.90;99.90
45229;DHT22;30967;51.728;8.682;2022-11-02T01:48:34;14.90;99.90
45229;DHT22;30967;51.728;8.682;2022-11-02T01:51:03;14.90;99.90
45229;DHT22;30967;51.728;8.682;2022-11-02T01:53:31;14.90;99.90
45229;DHT22;30967;51.728;8.682;2022-11-02T01:55:58;14.90;99.90
45229;DHT22;30967;51.728;8.682;2022-11-02T01:58:25;15.00;99.90
45229;DHT22;30967;51.728;8.682;2022-11-02T02:00:51;15.00;99.90
45229;DHT22;30967;51.728;8.682;2022-11-02T02:03:17;14.90;99.90
45229;DHT22;30967;51.728;8.682;2022-11-02T02:06:00;14.90;99.90
45229;DHT22;30967;51.728;8.682;2022-11-02T02:08:27;15.00;99.90
45229;DHT22;30967;51.728;8.682;2022-11-02T02:10:58;14.90;99.90
45229;DHT22;30967;51.728;8.682;2022-11-02T02:13:25;15.00;99.90
45229;DHT22;30967;51.728;8.682;2022-11-02T02:16:19;15.00;99.90
45229;DHT22;30967;51.728;8.682;2022-11-02T02:18:49;15.00;99.90
45229;DHT22;30967;51.728;8.682;2022-11-02T02:21:41;14.90;99.90
45229;DHT22;30967;51.728;8.682;2022-11-02T02:24:29;14.90;99.90
45229;DHT22;30967;51.728;8.682;2022-11-02T02:38:01;14.90;99.90
45229;DHT22;30967;51.728;8.682;2022-11-02T02:40:35;15.00;99.90
45229;DHT22;30967;51.728;8.682;2022-11-02T02:46:07;14.90;99.90
45229;DHT22;30967;51.728;8.682;2022-11-02T02:48:35;14.90;99.90
45229;DHT22;30967;51.728;8.682;2022-11-02T02:51:13;14.90;99.90
45229;DHT22;30967;51.728;8.682;2022-11-02T02:53:44;14.90;99.90
45229;DHT22;30967;51.728;8.682;2022-11-02T02:56:12;14.90;99.90
45229;DHT22;30967;51.728;8.682;2022-11-02T02:59:03;14.90;99.90
45229;DHT22;30967;51.728;8.682;2022-11-02T03:01:30;14.90;99.90
45229;DHT22;30967;51.728;8.682;2022-11-02T03:03:56;14.90;99.90
45229;DHT22;30967;51.728;8.682;2022-11-02T03:06:31;14.90;99.90
45229;DHT22;30967;51.728;8.682;2022-11-02T03:15:23;14.90;99.90
45229;DHT22;30967;51.728;8.682;2022-11-02T03:18:16;14.90;99.90
45229;DHT22;30967;51.728;8.682;2022-11-02T03:20:58;15.00;99.90
45229;DHT22;30967;51.728;8.682;2022-11-02T03:23:29;15.00;99.90
45229;DHT22;30967;51.728;8.682;2022-11-02T03:26:23;15.00;99.90
45229;DHT22;30967;51.728;8.682;2022-11-02T03:29:03;14.90;99.90
45229;DHT22;30967;51.728;8.682;2022-11-02T03:39:46;14.90;99.90
45229;DHT22;30967;51.728;8.682;2022-11-02T03:42:18;14.90;99.90
45229;DHT22;30967;51.728;8.682;2022-11-02T03:44:48;14.90;99.90
45229;DHT22;30967;51.728;8.682;2022-11-02T03:47:18;14.90;99.90
45229;DHT22;30967;51.728;8.682;2022-11-02T03:49:45;14.90;99.90
45229;DHT22;30967;51.728;8.682;2022-11-02T03:52:29;14.90;99.90
45229;DHT22;30967;51.728;8.682;2022-11-02T03:55:17;14.90;99.90
45229;DHT22;30967;51.728;8.682;2022-11-02T03:57:48;14.90;99.90
45229;DHT22;30967;51.728;8.682;2022-11-02T04:00:17;14.90;99.90
45229;DHT22;30967;51.728;8.682;2022-11-02T04:02:44;14.80;99.90
45229;DHT22;30967;51.728;8.682;2022-11-02T04:05:10;14.80;99.90
45229;DHT22;30967;51.728;8.682;2022-11-02T04:07:37;14.80;99.90
45229;DHT22;30967;51.728;8.682;2022-11-02T04:10:24;14.80;99.90
45229;DHT22;30967;51.728;8.682;2022-11-02T04:12:51;14.80;99.90
45229;DHT22;30967;51.728;8.682;2022-11-02T04:15:35;14.70;99.90
45229;DHT22;30967;51.728;8.682;2022-11-02T04:18:01;14.80;99.90
45229;DHT22;30967;51.728;8.682;2022-11-02T04:20:49;14.70;99.90
45229;DHT22;30967;51.728;8.682;2022-11-02T04:23:16;14.70;99.90
45229;DHT22;30967;51.728;8.682;2022-11-02T04:26:00;14.70;99.90
45229;DHT22;30967;51.728;8.682;2022-11-02T04:28:26;14.70;99.90
45229;DHT22;30967;51.728;8.682;2022-11-02T04:30:52;14.70;99.90
45229;DHT22;30967;51.728;8.682;2022-11-02T04:33:17;14.70;99.90
45229;DHT22;30967;51.728;8.682;2022-11-02T04:36:04;14.70;99.90
45229;DHT22;30967;51.728;8.682;2022-11-02T04:38:30;14.70;99.90
45229;DHT22;30967;51.728;8.682;2022-11-02T04:41:16;14.70;99.90
45229;DHT22;30967;51.728;8.682;2022-11-02T04:44:00;14.60;99.90
45229;DHT22;30967;51.728;8.682;2022-11-02T04:46:28;14.60;99.90
45229;DHT22;30967;51.728;8.682;2022-11-02T04:48:54;14.60;99.90
45229;DHT22;30967;51.728;8.682;2022-11-02T04:51:21;14.60;99.90
45229;DHT22;30967;51.728;8.682;2022-11-02T04:53:47;14.60;99.90
45229;DHT22;30967;51.728;8.682;2022-11-02T04:56:14;14.60;99.90
45229;DHT22;30967;51.728;8.682;2022-11-02T04:58:39;14.60;99.90
45229;DHT22;30967;51.728;8.682;2022-11-02T05:01:07;14.60;99.90
45229;DHT22;30967;51.728;8.682;2022-11-02T05:03:34;14.60;99.90
45229;DHT22;30967;51.728;8.682;2022-11-02T05:05:59;14.60;99.90
45229;DHT22;30967;51.728;8.682;2022-11-02T05:08:25;14.60;99.90
45229;DHT22;30967;51.728;8.682;2022-11-02T05:10:55;14.60;99.90
45229;DHT22;30967;51.728;8.682;2022-11-02T05:13:22;14.60;99.90
45229;DHT22;30967;51.728;8.682;2022-11-02T05:15:48;14.60;99.90
45229;DHT22;30967;51.728;8.682;2022-11-02T05:18:15;14.60;99.90
45229;DHT22;30967;51.728;8.682;2022-11-02T05:20:40;14.60;99.90
45229;DHT22;30967;51.728;8.682;2022-11-02T05:23:06;14.60;99.90
45229;DHT22;30967;51.728;8.682;2022-11-02T05:25:32;14.60;99.90
45229;DHT22;30967;51.728;8.682;2022-11-02T05:27:58;14.60;99.90
45229;DHT22;30967;51.728;8.682;2022-11-02T05:30:27;14.60;99.90
45229;DHT22;30967;51.728;8.682;2022-11-02T05:32:55;14.60;99.90
45229;DHT22;30967;51.728;8.682;2022-11-02T05:35:22;14.60;99.90
45229;DHT22;30967;51.728;8.682;2022-11-02T05:37:47;14.50;99.90
45229;DHT22;30967;51.728;8.682;2022-11-02T05:40:14;14.50;99.90
45229;DHT22;30967;51.728;8.682;2022-11-02T05:42:39;14.50;99.90
45229;DHT22;30967;51.728;8.682;2022-11-02T05:45:05;14.50;99.90
45229;DHT22;30967;51.728;8.682;2022-11-02T05:47:32;14.50;99.90
45229;DHT22;30967;51.728;8.682;2022-11-02T05:49:59;14.40;99.90
45229;DHT22;30967;51.728;8.682;2022-11-02T05:52:25;14.40;99.90
45229;DHT22;30967;51.728;8.682;2022-11-02T05:54:51;14.40;99.90
45229;DHT22;30967;51.728;8.682;2022-11-02T05:57:29;14.40;99.90
45229;DHT22;30967;51.728;8.682;2022-11-02T05:59:55;14.40;99.90
45229;DHT22;30967;51.728;8.682;2022-11-02T06:02:22;14.40;99.90
45229;DHT22;30967;51.728;8.682;2022-11-02T06:04:47;14.40;99.90
45229;DHT22;30967;51.728;8.682;2022-11-02T06:07:13;14.40;99.90
45229;DHT22;30967;51.728;8.682;2022-11-02T06:09:38;14.40;99.90
45229;DHT22;30967;51.728;8.682;2022-11-02T06:12:04;14.40;99.90
45229;DHT22;30967;51.728;8.682;2022-11-02T06:14:30;14.40;99.90
45229;DHT22;30967;51.728;8.682;2022-11-02T06:16:56;14.40;99.90
45229;DHT22;30967;51.728;8.682;2022-11-02T06:19:21;14.40;99.90
45229;DHT22;30967;51.728;8.682;2022-11-02T06:21:49;14.40;99.90
45229;DHT22;30967;51.728;8.682;2022-11-02T06:24:14;14.40;99.90
45229;DHT22;30967;51.728;8.682;2022-11-02T06:26:40;14.40;99.90
45229;DHT22;30967;51.728;8.682;2022-11-02T06:29:05;14.30;99.90
45229;DHT22;30967;51.728;8.682;2022-11-02T06:31:34;14.30;99.90
45229;DHT22;30967;51.728;8.682;2022-11-02T06:34:00;14.30;99.90
45229;DHT22;30967;51.728;8.682;2022-11-02T06:36:25;14.30;99.90
45229;DHT22;30967;51.728;8.682;2022-11-02T06:38:51;14.30;99.90
45229;DHT22;30967;51.728;8.682;2022-11-02T06:41:16;14.30;99.90
45229;DHT22;30967;51.728;8.682;2022-11-02T06:43:42;14.20;99.90
45229;DHT22;30967;51.728;8.682;2022-11-02T06:46:07;14.20;99.90
45229;DHT22;30967;51.728;8.682;2022-11-02T06:48:35;14.20;99.90
45229;DHT22;30967;51.728;8.682;2022-11-02T06:51:02;14.30;99.90
45229;DHT22;30967;51.728;8.682;2022-11-02T06:53:27;14.20;99.90
45229;DHT22;30967;51.728;8.682;2022-11-02T06:55:57;14.20;99.90
45229;DHT22;30967;51.728;8.682;2022-11-02T06:58:23;14.30;99.90
45229;DHT22;30967;51.728;8.682;2022-11-02T07:00:49;14.30;99.90
45229;DHT22;30967;51.728;8.682;2022-11-02T07:03:15;14.20;99.90
45229;DHT22;30967;51.728;8.682;2022-11-02T07:05:41;14.30;99.90
45229;DHT22;30967;51.728;8.682;2022-11-02T07:08:07;14.20;99.90
45229;DHT22;30967;51.728;8.682;2022-11-02T07:10:34;14.30;99.90
45229;DHT22;30967;51.728;8.682;2022-11-02T07:13:00;14.30;99.90
45229;DHT22;30967;51.728;8.682;2022-11-02T07:15:26;14.30;99.90
45229;DHT22;30967;51.728;8.682;2022-11-02T07:17:52;14.30;99.90
45229;DHT22;30967;51.728;8.682;2022-11-02T07:20:21;14.30;99.90
45229;DHT22;30967;51.728;8.682;2022-11-02T07:22:58;14.30;99.90
45229;DHT22;30967;51.728;8.682;2022-11-02T07:25:25;14.40;99.90
45229;DHT22;30967;51.728;8.682;2022-11-02T07:27:51;14.40;99.90
45229;DHT22;30967;51.728;8.682;2022-11-02T07:30:22;14.30;99.90
45229;DHT22;30967;51.728;8.682;2022-11-02T07:32:48;14.40;99.90
45229;DHT22;30967;51.728;8.682;2022-11-02T07:35:14;14.40;99.90
45229;DHT22;30967;51.728;8.682;2022-11-02T07:37:40;14.40;99.90
45229;DHT22;30967;51.728;8.682;2022-11-02T07:40:07;14.40;99.90
45229;DHT22;30967;51.728;8.682;2022-11-02T07:42:33;14.40;99.90
45229;DHT22;30967;51.728;8.682;2022-11-02T07:45:10;14.40;99.90
45229;DHT22;30967;51.728;8.682;2022-11-02T07:47:45;14.50;99.90
45229;DHT22;30967;51.728;8.682;2022-11-02T07:50:13;14.50;99.90
45229;DHT22;30967;51.728;8.682;2022-11-02T07:52:45;14.50;99.90
45229;DHT22;30967;51.728;8.682;2022-11-02T07:55:22;14.50;99.90
45229;DHT22;30967;51.728;8.682;2022-11-02T08:00:36;14.50;99.90
45229;DHT22;30967;51.728;8.682;2022-11-02T08:03:03;14.60;99.90
45229;DHT22;30967;51.728;8.682;2022-11-02T08:05:30;14.60;99.90
45229;DHT22;30967;51.728;8.682;2022-11-02T08:07:57;14.60;99.90
45229;DHT22;30967;51.728;8.682;2022-11-02T08:10:24;14.60;99.90
45229;DHT22;30967;51.728;8.682;2022-11-02T08:12:50;14.70;99.90
45229;DHT22;30967;51.728;8.682;2022-11-02T08:15:15;14.60;99.90
45229;DHT22;30967;51.728;8.682;2022-11-02T08:17:41;14.60;99.90
45229;DHT22;30967;51.728;8.682;2022-11-02T08:20:08;14.70;99.90
45229;DHT22;30967;51.728;8.682;2022-11-02T08:22:38;14.70;99.90
45229;DHT22;30967;51.728;8.682;2022-11-02T08:25:04;14.70;99.90
45229;DHT22;30967;51.728;8.682;2022-11-02T08:27:30;14.70;99.90
45229;DHT22;30967;51.728;8.682;2022-11-02T08:29:56;14.70;99.90
45229;DHT22;30967;51.728;8.682;2022-11-02T08:32:22;14.70;99.90
45229;DHT22;30967;51.728;8.682;2022-11-02T08:34:48;14.70;99.90
45229;DHT22;30967;51.728;8.682;2022-11-02T08:37:13;14.80;99.90
45229;DHT22;30967;51.728;8.682;2022-11-02T08:39:39;14.80;99.90
45229;DHT22;30967;51.728;8.682;2022-11-02T08:42:05;14.80;99.90
45229;DHT22;30967;51.728;8.682;2022-11-02T08:44:30;14.80;99.90
45229;DHT22;30967;51.728;8.682;2022-11-02T08:46:56;14.80;99.90
45229;DHT22;30967;51.728;8.682;2022-11-02T08:49:21;14.80;99.90
45229;DHT22;30967;51.728;8.682;2022-11-02T08:51:47;14.80;99.90
45229;DHT22;30967;51.728;8.682;2022-11-02T08:54:12;14.80;99.90
45229;DHT22;30967;51.728;8.682;2022-11-02T08:56:40;14.80;99.90
45229;DHT22;30967;51.728;8.682;2022-11-02T08:59:06;14.80;99.90
45229;DHT22;30967;51.728;8.682;2022-11-02T09:01:31;14.80;99.90
45229;DHT22;30967;51.728;8.682;2022-11-02T09:03:57;14.80;99.90
45229;DHT22;30967;51.728;8.682;2022-11-02T09:06:23;14.90;99.90
45229;DHT22;30967;51.728;8.682;2022-11-02T09:08:48;14.80;99.90
45229;DHT22;30967;51.728;8.682;2022-11-02T09:11:14;14.90;99.90
45229;DHT22;30967;51.728;8.682;2022-11-02T09:13:40;14.90;99.70
45229;DHT22;30967;51.728;8.682;2022-11-02T09:16:06;14.90;99.80
45229;DHT22;30967;51.728;8.682;2022-11-02T09:18:32;14.90;99.70
45229;DHT22;30967;51.728;8.682;2022-11-02T09:21:01;14.90;99.50
45229;DHT22;30967;51.728;8.682;2022-11-02T09:23:34;14.90;99.50
45229;DHT22;30967;51.728;8.682;2022-11-02T09:26:00;14.90;99.50
45229;DHT22;30967;51.728;8.682;2022-11-02T09:28:27;14.90;99.00
45229;DHT22;30967;51.728;8.682;2022-11-02T09:30:52;14.90;99.10
45229;DHT22;30967;51.728;8.682;2022-11-02T09:33:18;14.90;99.20
45229;DHT22;30967;51.728;8.682;2022-11-02T09:35:45;14.90;99.20
45229;DHT22;30967;51.728;8.682;2022-11-02T09:38:13;14.90;98.90
45229;DHT22;30967;51.728;8.682;2022-11-02T09:40:50;15.00;99.10
45229;DHT22;30967;51.728;8.682;2022-11-02T09:46:29;15.00;99.10
45229;DHT22;30967;51.728;8.682;2022-11-02T09:49:24;15.00;99.20
45229;DHT22;30967;51.728;8.682;2022-11-02T09:51:59;14.90;98.70
45229;DHT22;30967;51.728;8.682;2022-11-02T09:56:55;14.90;98.90
45229;DHT22;30967;51.728;8.682;2022-11-02T09:59:24;15.00;99.00
45229;DHT22;30967;51.728;8.682;2022-11-02T10:15:47;15.20;99.00
45229;DHT22;30967;51.728;8.682;2022-11-02T10:18:23;15.20;98.70
45229;DHT22;30967;51.728;8.682;2022-11-02T10:20:53;15.20;99.10
45229;DHT22;30967;51.728;8.682;2022-11-02T10:23:55;15.20;99.50
45229;DHT22;30967;51.728;8.682;2022-11-02T10:26:31;15.30;99.60
45229;DHT22;30967;51.728;8.682;2022-11-02T10:29:00;15.30;98.90
45229;DHT22;30967;51.728;8.682;2022-11-02T10:31:32;15.30;98.90
45229;DHT22;30967;51.728;8.682;2022-11-02T10:34:17;15.30;98.90
45229;DHT22;30967;51.728;8.682;2022-11-02T10:42:20;15.40;98.70
45229;DHT22;30967;51.728;8.682;2022-11-02T10:51:06;15.60;98.10
45229;DHT22;30967;51.728;8.682;2022-11-02T10:53:39;15.50;98.00
45229;DHT22;30967;51.728;8.682;2022-11-02T10:59:32;15.60;97.40
45229;DHT22;30967;51.728;8.682;2022-11-02T11:01:33;15.60;97.40
45229;DHT22;30967;51.728;8.682;2022-11-02T11:04:01;15.70;97.40
45229;DHT22;30967;51.728;8.682;2022-11-02T11:06:41;15.70;97.70
45229;DHT22;30967;51.728;8.682;2022-11-02T11:09:20;15.70;97.10
45229;DHT22;30967;51.728;8.682;2022-11-02T11:14:21;15.70;97.10
45229;DHT22;30967;51.728;8.682;2022-11-02T11:16:53;15.80;97.30
45229;DHT22;30967;51.728;8.682;2022-11-02T11:21:47;15.90;98.20
45229;DHT22;30967;51.728;8.682;2022-11-02T11:24:34;15.90;96.40
45229;DHT22;30967;51.728;8.682;2022-11-02T11:27:12;15.90;95.80
45229;DHT22;30967;51.728;8.682;2022-11-02T11:29:41;15.90;95.60
45229;DHT22;30967;51.728;8.682;2022-11-02T11:32:24;15.90;95.50
45229;DHT22;30967;51.728;8.682;2022-11-02T11:37:21;16.00;95.70
45229;DHT22;30967;51.728;8.682;2022-11-02T11:39:54;16.00;95.40
45229;DHT22;30967;51.728;8.682;2022-11-02T11:42:24;16.00;95.10
45229;DHT22;30967;51.728;8.682;2022-11-02T11:45:00;15.90;95.10
45229;DHT22;30967;51.728;8.682;2022-11-02T11:47:34;16.00;95.40
45229;DHT22;30967;51.728;8.682;2022-11-02T11:50:04;16.00;95.50
45229;DHT22;30967;51.728;8.682;2022-11-02T11:52:31;16.00;95.30
45229;DHT22;30967;51.728;8.682;2022-11-02T11:55:05;16.00;95.30
45229;DHT22;30967;51.728;8.682;2022-11-02T12:00:32;16.00;95.30
45229;DHT22;30967;51.728;8.682;2022-11-02T12:03:07;16.10;95.50
45229;DHT22;30967;51.728;8.682;2022-11-02T12:08:28;16.10;96.00
45229;DHT22;30967;51.728;8.682;2022-11-02T12:11:21;16.10;96.10
45229;DHT22;30967;51.728;8.682;2022-11-02T12:27:36;16.20;96.20
45229;DHT22;30967;51.728;8.682;2022-11-02T12:30:19;16.20;96.40
45229;DHT22;30967;51.728;8.682;2022-11-02T12:33:17;16.30;96.50
45229;DHT22;30967;51.728;8.682;2022-11-02T12:36:00;16.30;96.00
45229;DHT22;30967;51.728;8.682;2022-11-02T12:47:59;16.40;94.90
45229;DHT22;30967;51.728;8.682;2022-11-02T12:55:41;16.50;94.30
45229;DHT22;30967;51.728;8.682;2022-11-02T12:58:15;16.50;93.50
45229;DHT22;30967;51.728;8.682;2022-11-02T13:00:43;16.50;92.80
45229;DHT22;30967;51.728;8.682;2022-11-02T13:03:18;16.50;92.80
45229;DHT22;30967;51.728;8.682;2022-11-02T13:05:49;16.50;93.00
45229;DHT22;30967;51.728;8.682;2022-11-02T13:08:24;16.50;93.90
45229;DHT22;30967;51.728;8.682;2022-11-02T13:10:57;16.50;94.50
45229;DHT22;30967;51.728;8.682;2022-11-02T13:13:33;16.60;93.90
45229;DHT22;30967;51.728;8.682;2022-11-02T13:16:01;16.60;94.10
45229;DHT22;30967;51.728;8.682;2022-11-02T13:18:31;16.60;94.00
45229;DHT22;30967;51.728;8.682;2022-11-02T13:21:02;16.70;93.30
45229;DHT22;30967;51.728;8.682;2022-11-02T13:25:57;16.70;92.60
45229;DHT22;30967;51.728;8.682;2022-11-02T13:30:54;16.80;92.50
45229;DHT22;30967;51.728;8.682;2022-11-02T13:33:32;16.80;92.60
45229;DHT22;30967;51.728;8.682;2022-11-02T13:35:59;16.80;92.80
45229;DHT22;30967;51.728;8.682;2022-11-02T13:49:43;17.20;92.10
45229;DHT22;30967;51.728;8.682;2022-11-02T13:52:15;17.20;92.20
45229;DHT22;30967;51.728;8.682;2022-11-02T13:54:48;17.20;91.80
45229;DHT22;30967;51.728;8.682;2022-11-02T13:57:42;17.30;92.00
45229;DHT22;30967;51.728;8.682;2022-11-02T14:00:28;17.30;92.00
45229;DHT22;30967;51.728;8.682;2022-11-02T14:05:29;17.40;92.00
45229;DHT22;30967;51.728;8.682;2022-11-02T14:08:09;17.50;92.70
45229;DHT22;30967;51.728;8.682;2022-11-02T14:10:37;17.60;92.20
45229;DHT22;30967;51.728;8.682;2022-11-02T14:13:03;17.70;92.40
45229;DHT22;30967;51.728;8.682;2022-11-02T14:15:42;17.60;91.90
45229;DHT22;30967;51.728;8.682;2022-11-02T14:25:55;17.80;91.30
45229;DHT22;30967;51.728;8.682;2022-11-02T14:47:08;17.90;90.70
45229;DHT22;30967;51.728;8.682;2022-11-02T14:49:36;17.90;90.80
45229;DHT22;30967;51.728;8.682;2022-11-02T14:52:15;17.90;90.90
45229;DHT22;30967;51.728;8.682;2022-11-02T14:54:49;17.90;91.00
45229;DHT22;30967;51.728;8.682;2022-11-02T14:57:40;17.90;91.10
45229;DHT22;30967;51.728;8.682;2022-11-02T15:00:19;17.90;92.20
45229;DHT22;30967;51.728;8.682;2022-11-02T15:02:47;17.90;91.50
45229;DHT22;30967;51.728;8.682;2022-11-02T15:07:50;17.80;91.50
45229;DHT22;30967;51.728;8.682;2022-11-02T15:12:45;17.70;91.80
45229;DHT22;30967;51.728;8.682;2022-11-02T15:15:30;17.70;92.10
45229;DHT22;30967;51.728;8.682;2022-11-02T15:26:57;17.70;92.60
45229;DHT22;30967;51.728;8.682;2022-11-02T15:29:34;17.60;92.80
45229;DHT22;30967;51.728;8.682;2022-11-02T15:32:03;17.60;93.20
45229;DHT22;30967;51.728;8.682;2022-11-02T15:34:56;17.60;93.30
45229;DHT22;30967;51.728;8.682;2022-11-02T15:39:50;17.50;92.70
45229;DHT22;30967;51.728;8.682;2022-11-02T15:42:44;17.50;92.60
45229;DHT22;30967;51.728;8.682;2022-11-02T15:50:48;17.40;92.90
45229;DHT22;30967;51.728;8.682;2022-11-02T16:01:38;17.10;93.00
45229;DHT22;30967;51.728;8.682;2022-11-02T16:04:06;16.90;93.10
45229;DHT22;30967;51.728;8.682;2022-11-02T16:06:38;16.90;93.20
45229;DHT22;30967;51.728;8.682;2022-11-02T16:09:29;16.90;93.00
45229;DHT22;30967;51.728;8.682;2022-11-02T16:14:33;16.70;93.10
45229;DHT22;30967;51.728;8.682;2022-11-02T16:16:58;16.60;93.30
45229;DHT22;30967;51.728;8.682;2022-11-02T16:19:24;16.60;93.30
45229;DHT22;30967;51.728;8.682;2022-11-02T16:21:57;16.50;93.40
45229;DHT22;30967;51.728;8.682;2022-11-02T16:24:32;16.40;93.40
45229;DHT22;30967;51.728;8.682;2022-11-02T16:26:59;16.40;93.40
45229;DHT22;30967;51.728;8.682;2022-11-02T16:29:31;16.30;93.50
45229;DHT22;30967;51.728;8.682;2022-11-02T16:31:57;16.30;93.60
45229;DHT22;30967;51.728;8.682;2022-11-02T16:34:29;16.20;93.70
45229;DHT22;30967;51.728;8.682;2022-11-02T16:36:56;16.20;93.80
45229;DHT22;30967;51.728;8.682;2022-11-02T16:39:30;16.10;93.90
45229;DHT22;30967;51.728;8.682;2022-11-02T16:42:06;16.10;94.00
45229;DHT22;30967;51.728;8.682;2022-11-02T16:44:32;16.00;94.00
45229;DHT22;30967;51.728;8.682;2022-11-02T16:49:26;15.90;94.10
45229;DHT22;30967;51.728;8.682;2022-11-02T16:51:55;15.80;94.10
45229;DHT22;30967;51.728;8.682;2022-11-02T16:54:36;15.80;94.10
45229;DHT22;30967;51.728;8.682;2022-11-02T16:57:12;15.70;94.10
45229;DHT22;30967;51.728;8.682;2022-11-02T17:02:21;15.60;94.20
45229;DHT22;30967;51.728;8.682;2022-11-02T17:04:48;15.50;94.20
45229;DHT22;30967;51.728;8.682;2022-11-02T17:07:26;15.50;94.30
45229;DHT22;30967;51.728;8.682;2022-11-02T17:09:55;15.40;94.20
45229;DHT22;30967;51.728;8.682;2022-11-02T17:12:34;15.30;94.30
45229;DHT22;30967;51.728;8.682;2022-11-02T17:15:03;15.30;94.20
45229;DHT22;30967;51.728;8.682;2022-11-02T17:17:38;15.20;94.20
45229;DHT22;30967;51.728;8.682;2022-11-02T17:22:53;15.10;94.40
45229;DHT22;30967;51.728;8.682;2022-11-02T17:25:36;15.10;94.50
45229;DHT22;30967;51.728;8.682;2022-11-02T17:30:59;15.00;94.60
45229;DHT22;30967;51.728;8.682;2022-11-02T17:33:27;14.90;94.60
45229;DHT22;30967;51.728;8.682;2022-11-02T17:36:02;14.90;94.50
45229;DHT22;30967;51.728;8.682;2022-11-02T17:38:28;14.90;94.60
45229;DHT22;30967;51.728;8.682;2022-11-02T17:40:54;14.80;94.60
45229;DHT22;30967;51.728;8.682;2022-11-02T17:43:21;14.80;94.70
45229;DHT22;30967;51.728;8.682;2022-11-02T17:45:58;14.80;94.70
45229;DHT22;30967;51.728;8.682;2022-11-02T17:48:27;14.70;94.60
45229;DHT22;30967;51.728;8.682;2022-11-02T17:50:54;14.70;94.70
45229;DHT22;30967;51.728;8.682;2022-11-02T17:53:22;14.70;95.00
45229;DHT22;30967;51.728;8.682;2022-11-02T17:55:48;14.60;94.70
45229;DHT22;30967;51.728;8.682;2022-11-02T17:58:29;14.60;94.70
45229;DHT22;30967;51.728;8.682;2022-11-02T18:00:54;14.50;94.70
45229;DHT22;30967;51.728;8.682;2022-11-02T18:03:20;14.50;94.70
45229;DHT22;30967;51.728;8.682;2022-11-02T18:05:47;14.50;94.80
45229;DHT22;30967;51.728;8.682;2022-11-02T18:08:14;14.50;94.90
45229;DHT22;30967;51.728;8.682;2022-11-02T18:10:44;14.40;94.90
45229;DHT22;30967;51.728;8.682;2022-11-02T18:13:15;14.40;95.00
45229;DHT22;30967;51.728;8.682;2022-11-02T18:15:43;14.30;95.00
45229;DHT22;30967;51.728;8.682;2022-11-02T18:18:08;14.30;95.00
45229;DHT22;30967;51.728;8.682;2022-11-02T18:20:35;14.30;95.00
45229;DHT22;30967;51.728;8.682;2022-11-02T18:23:01;14.20;95.10
45229;DHT22;30967;51.728;8.682;2022-11-02T18:25:27;14.20;95.20
45229;DHT22;30967;51.728;8.682;2022-11-02T18:27:57;14.20;95.30
45229;DHT22;30967;51.728;8.682;2022-11-02T18:30:24;14.20;95.30
45229;DHT22;30967;51.728;8.682;2022-11-02T18:32:55;14.10;95.40
45229;DHT22;30967;51.728;8.682;2022-11-02T18:35:22;14.10;95.50
45229;DHT22;30967;51.728;8.682;2022-11-02T18:37:48;14.10;95.60
45229;DHT22;30967;51.728;8.682;2022-11-02T18:40:18;14.10;95.70
45229;DHT22;30967;51.728;8.682;2022-11-02T18:42:44;14.10;95.80
45229;DHT22;30967;51.728;8.682;2022-11-02T18:45:12;14.00;95.80
45229;DHT22;30967;51.728;8.682;2022-11-02T18:47:38;14.00;95.80
45229;DHT22;30967;51.728;8.682;2022-11-02T18:50:06;14.00;95.80
45229;DHT22;30967;51.728;8.682;2022-11-02T18:52:32;14.00;95.80
45229;DHT22;30967;51.728;8.682;2022-11-02T18:54:58;13.90;95.80
45229;DHT22;30967;51.728;8.682;2022-11-02T18:57:28;13.90;95.90
45229;DHT22;30967;51.728;8.682;2022-11-02T18:59:54;13.90;95.90
45229;DHT22;30967;51.728;8.682;2022-11-02T19:02:19;13.90;96.00
45229;DHT22;30967;51.728;8.682;2022-11-02T19:04:45;13.90;96.00